createdAt,value
2018-12-17T00:00:41.710Z,101101.87
2018-12-17T00:03:08.866Z,101105.67
2018-12-17T00:05:41.734Z,101107.05
2018-12-17T00:08:05.446Z,101105.20
2018-12-17T00:10:32.562Z,101096.47
2018-12-17T00:12:59.831Z,101098.83
2018-12-17T00:15:26.970Z,101096.33
2018-12-17T00:17:54.113Z,101107.05
2018-12-17T00:20:21.296Z,101100.81
2018-12-17T00:22:48.421Z,101108.86
2018-12-17T00:25:15.538Z,101114.43
2018-12-17T00:27:42.950Z,101119.00
2018-12-17T00:30:10.178Z,101115.04
2018-12-17T00:32:37.270Z,101118.68
2018-12-17T00:35:05.235Z,101118.32
2018-12-17T00:37:32.371Z,101121.17
2018-12-17T00:39:59.854Z,101123.58
2018-12-17T00:42:27.101Z,101117.30
2018-12-17T00:44:54.221Z,101122.70
2018-12-17T00:47:21.349Z,101127.05
2018-12-17T00:49:48.586Z,101134.39
2018-12-17T00:52:15.719Z,101118.96
2018-12-17T00:54:42.806Z,101133.64
2018-12-17T00:57:09.953Z,101131.25
2018-12-17T00:59:37.094Z,101130.84
2018-12-17T01:02:04.227Z,101138.84
2018-12-17T01:04:31.441Z,101136.11
2018-12-17T01:06:58.736Z,101145.20
2018-12-17T01:09:26.267Z,101139.75
2018-12-17T01:11:53.432Z,101143.62
2018-12-17T01:14:20.546Z,101145.84
2018-12-17T01:16:47.656Z,101157.16
2018-12-17T01:19:14.818Z,101161.97
2018-12-17T01:21:42.340Z,101154.33
2018-12-17T01:24:09.499Z,101160.39
2018-12-17T01:26:36.785Z,101154.73
2018-12-17T01:29:03.892Z,101147.00
2018-12-17T01:31:31.018Z,101149.63
2018-12-17T01:33:58.193Z,101142.19
2018-12-17T01:36:25.343Z,101151.03
2018-12-17T01:38:52.534Z,101155.09
2018-12-17T01:41:19.880Z,101150.78
2018-12-17T01:43:47.004Z,101155.13
2018-12-17T01:46:14.118Z,101155.36
2018-12-17T01:48:41.402Z,101154.81
2018-12-17T01:51:08.544Z,101151.94
2018-12-17T01:53:35.682Z,101162.75
2018-12-17T01:56:02.909Z,101158.47
2018-12-17T01:58:30.024Z,101160.39
2018-12-17T02:00:57.169Z,101158.23
2018-12-17T02:03:24.344Z,101153.01
2018-12-17T02:05:51.455Z,101148.28
2018-12-17T02:08:18.615Z,101145.14
2018-12-17T02:10:45.871Z,101155.30
2018-12-17T02:13:12.988Z,101155.95
2018-12-17T02:15:40.095Z,101158.77
2018-12-17T02:18:07.399Z,101164.44
2018-12-17T02:20:34.590Z,101173.46
2018-12-17T02:23:01.711Z,101171.03
2018-12-17T02:25:28.876Z,101173.80
2018-12-17T02:27:55.998Z,101168.16
2018-12-17T02:30:23.139Z,101178.09
2018-12-17T02:32:50.376Z,101180.13
2018-12-17T02:35:17.506Z,101179.22
2018-12-17T02:37:44.747Z,101181.05
2018-12-17T02:40:11.919Z,101177.00
2018-12-17T02:42:39.064Z,101179.48
2018-12-17T02:45:06.330Z,101178.42
2018-12-17T02:47:33.497Z,101185.45
2018-12-17T02:50:00.623Z,101182.34
2018-12-17T02:52:27.756Z,101191.13
2018-12-17T02:54:54.939Z,101194.14
2018-12-17T02:57:22.052Z,101196.45
2018-12-17T02:59:49.160Z,101198.52
2018-12-17T03:02:16.339Z,101192.16
2018-12-17T03:04:43.450Z,101196.31
2018-12-17T03:07:10.556Z,101198.06
2018-12-17T03:09:37.915Z,101194.32
2018-12-17T03:12:05.162Z,101203.05
2018-12-17T03:14:32.315Z,101203.84
2018-12-17T03:16:59.487Z,101202.67
2018-12-17T03:19:26.610Z,101205.68
2018-12-17T03:21:53.738Z,101205.31
2018-12-17T03:24:20.920Z,101201.56
2018-12-17T03:26:48.170Z,101200.42
2018-12-17T03:29:15.313Z,101202.55
2018-12-17T03:31:42.889Z,101202.31
2018-12-17T03:34:10.011Z,101204.99
2018-12-17T03:36:37.623Z,101203.61
2018-12-17T03:39:06.144Z,101203.74
2018-12-17T03:41:33.336Z,101203.70
2018-12-17T03:44:00.468Z,101204.20
2018-12-17T03:46:27.636Z,101196.19
2018-12-17T03:48:54.742Z,101198.98
2018-12-17T03:51:21.854Z,101209.26
2018-12-17T03:53:49.019Z,101205.64
2018-12-17T03:56:16.198Z,101204.62
2018-12-17T03:58:43.311Z,101199.38
2018-12-17T04:01:10.493Z,101202.58
2018-12-17T04:03:37.603Z,101215.70
2018-12-17T04:06:04.734Z,101225.32
2018-12-17T04:08:31.933Z,101226.25
2018-12-17T04:10:59.107Z,101227.34
2018-12-17T04:13:26.226Z,101220.78
2018-12-17T04:15:53.391Z,101222.45
2018-12-17T04:18:20.927Z,101229.30
2018-12-17T04:20:48.035Z,101228.28
2018-12-17T04:23:15.222Z,101231.75
2018-12-17T04:25:42.358Z,101231.80
2018-12-17T04:28:10.353Z,101235.62
2018-12-17T04:30:37.618Z,101236.51
2018-12-17T04:33:04.747Z,101237.14
2018-12-17T04:35:31.882Z,101239.14
2018-12-17T04:37:59.070Z,101238.62
2018-12-17T04:40:26.194Z,101240.84
2018-12-17T04:42:53.306Z,101243.62
2018-12-17T04:45:20.468Z,101241.36
2018-12-17T04:47:47.610Z,101241.91
2018-12-17T04:50:14.731Z,101242.25
2018-12-17T04:52:41.945Z,101245.72
2018-12-17T04:55:09.082Z,101251.89
2018-12-17T04:57:36.627Z,101254.89
2018-12-17T05:00:04.215Z,101254.31
2018-12-17T05:02:31.363Z,101271.95
2018-12-17T05:05:00.403Z,101269.05
2018-12-17T05:07:27.571Z,101275.58
2018-12-17T05:09:54.669Z,101275.93
2018-12-17T05:12:21.847Z,101280.28
2018-12-17T05:14:49.100Z,101285.23
2018-12-17T05:17:16.239Z,101280.95
2018-12-17T05:19:43.341Z,101291.72
2018-12-17T05:22:10.563Z,101279.19
2018-12-17T05:24:37.672Z,101282.45
2018-12-17T05:27:04.798Z,101287.00
2018-12-17T05:29:31.971Z,101277.99
2018-12-17T05:31:59.113Z,101280.80
2018-12-17T05:34:26.249Z,101277.25
2018-12-17T05:36:53.454Z,101288.50
2018-12-17T05:39:20.569Z,101286.89
2018-12-17T05:41:47.732Z,101291.64
2018-12-17T05:44:14.973Z,101299.20
2018-12-17T05:46:42.116Z,101312.39
2018-12-17T05:49:09.241Z,101314.98
2018-12-17T05:51:36.447Z,101319.78
2018-12-17T05:54:03.699Z,101315.50
2018-12-17T05:56:30.828Z,101325.80
2018-12-17T05:58:57.998Z,101334.48
2018-12-17T06:01:25.516Z,101336.34
2018-12-17T06:03:52.638Z,101337.28
2018-12-17T06:06:19.786Z,101332.93
2018-12-17T06:08:46.918Z,101334.17
2018-12-17T06:11:14.914Z,101334.55
2018-12-17T06:13:42.212Z,101339.77
2018-12-17T06:16:09.332Z,101347.85
2018-12-17T06:18:36.690Z,101350.91
2018-12-17T06:21:04.118Z,101350.68
2018-12-17T06:23:31.256Z,101359.84
2018-12-17T06:25:58.395Z,101369.42
2018-12-17T06:28:25.579Z,101366.69
2018-12-17T06:30:52.760Z,101370.62
2018-12-17T06:33:19.877Z,101366.05
2018-12-17T06:35:47.063Z,101372.94
2018-12-17T06:38:14.383Z,101374.91
2018-12-17T06:40:41.486Z,101379.73
2018-12-17T06:43:08.639Z,101369.32
2018-12-17T06:45:35.755Z,101381.12
2018-12-17T06:48:02.858Z,101385.83
2018-12-17T06:50:30.105Z,101392.83
2018-12-17T06:52:57.186Z,101389.87
2018-12-17T06:55:24.283Z,101390.03
2018-12-17T06:57:51.720Z,101391.05
2018-12-17T07:00:18.827Z,101394.42
2018-12-17T07:02:45.930Z,101392.92
2018-12-17T07:05:13.098Z,101394.47
2018-12-17T07:07:40.203Z,101405.72
2018-12-17T07:10:07.314Z,101417.00
2018-12-17T07:12:34.518Z,101409.45
2018-12-17T07:15:01.666Z,101420.02
2018-12-17T07:17:28.765Z,101427.45
2018-12-17T07:19:55.923Z,101432.59
2018-12-17T07:22:23.034Z,101433.26
2018-12-17T07:24:50.151Z,101435.84
2018-12-17T07:27:17.314Z,101425.95
2018-12-17T07:29:49.774Z,101428.75
2018-12-17T07:32:13.567Z,101438.02
2018-12-17T07:34:40.942Z,101441.97
2018-12-17T07:37:08.286Z,101446.25
2018-12-17T07:39:35.403Z,101448.95
2018-12-17T07:42:02.566Z,101450.61
2018-12-17T07:44:29.657Z,101448.59
2018-12-17T07:46:56.739Z,101451.28
2018-12-17T07:49:23.890Z,101448.44
2018-12-17T07:51:50.971Z,101457.13
2018-12-17T07:54:18.063Z,101450.23
2018-12-17T07:56:45.182Z,101460.45
2018-12-17T07:59:12.259Z,101464.58
2018-12-17T08:01:39.382Z,101464.31
2018-12-17T08:04:06.623Z,101464.31
2018-12-17T08:06:33.727Z,101475.09
2018-12-17T08:09:00.820Z,101480.80
2018-12-17T08:11:28.175Z,101486.02
2018-12-17T08:13:55.270Z,101487.04
2018-12-17T08:16:22.394Z,101476.69
2018-12-17T08:18:49.929Z,101472.06
2018-12-17T08:21:17.134Z,101482.16
2018-12-17T08:23:44.230Z,101480.03
2018-12-17T08:26:11.398Z,101474.94
2018-12-17T08:28:38.482Z,101482.49
2018-12-17T08:31:05.626Z,101488.70
2018-12-17T08:33:32.771Z,101488.94
2018-12-17T08:35:59.980Z,101496.77
2018-12-17T08:38:27.050Z,101500.09
2018-12-17T08:40:54.198Z,101506.30
2018-12-17T08:43:21.336Z,101509.35
2018-12-17T08:45:48.470Z,101513.56
2018-12-17T08:48:15.680Z,101519.03
2018-12-17T08:50:42.888Z,101520.24
2018-12-17T08:53:10.014Z,101524.45
2018-12-17T08:55:37.299Z,101518.62
2018-12-17T08:58:04.507Z,101516.13
2018-12-17T09:00:31.601Z,101517.42
2018-12-17T09:02:58.723Z,101529.27
2018-12-17T09:05:26.034Z,101531.55
2018-12-17T09:07:53.215Z,101540.06
2018-12-17T09:10:20.374Z,101540.56
2018-12-17T09:12:47.551Z,101538.76
2018-12-17T09:17:48.913Z,101536.72
2018-12-17T09:20:16.118Z,101540.16
2018-12-17T09:22:43.199Z,101545.05
2018-12-17T09:25:10.349Z,101549.72
2018-12-17T09:27:37.449Z,101553.98
2018-12-17T09:30:05.559Z,101550.89
2018-12-17T09:32:32.796Z,101555.04
2018-12-17T09:34:59.912Z,101564.55
2018-12-17T09:37:26.995Z,101556.89
2018-12-17T09:39:54.183Z,101564.72
2018-12-17T09:42:21.283Z,101560.45
2018-12-17T09:44:48.532Z,101563.40
2018-12-17T09:47:15.686Z,101557.69
2018-12-17T09:49:42.770Z,101561.02
2018-12-17T09:52:09.856Z,101555.55
2018-12-17T09:54:36.999Z,101562.25
2018-12-17T09:57:04.423Z,101561.21
2018-12-17T09:59:31.518Z,101561.17
2018-12-17T10:01:58.659Z,101566.74
2018-12-17T10:04:25.751Z,101561.30
2018-12-17T10:06:52.857Z,101562.92
2018-12-17T10:09:20.035Z,101574.06
2018-12-17T10:11:47.196Z,101566.91
2018-12-17T10:14:14.331Z,101561.12
2018-12-17T10:16:41.503Z,101557.01
2018-12-17T10:19:08.752Z,101552.36
2018-12-17T10:21:35.890Z,101560.56
2018-12-17T10:24:03.304Z,101564.51
2018-12-17T10:26:30.671Z,101558.97
2018-12-17T10:28:57.782Z,101557.17
2018-12-17T10:31:24.943Z,101567.26
2018-12-17T10:33:52.179Z,101563.28
2018-12-17T10:36:19.270Z,101567.94
2018-12-17T10:38:46.508Z,101576.58
2018-12-17T10:41:13.722Z,101570.34
2018-12-17T10:43:40.815Z,101577.30
2018-12-17T10:46:07.959Z,101572.09
2018-12-17T10:48:35.210Z,101568.12
2018-12-17T10:51:02.298Z,101577.03
2018-12-17T10:53:29.551Z,101569.76
2018-12-17T10:55:56.635Z,101580.23
2018-12-17T10:58:23.826Z,101576.11
2018-12-17T11:00:56.762Z,101570.76
2018-12-17T11:03:35.509Z,101575.83
2018-12-17T11:06:06.884Z,101565.86
2018-12-17T11:08:33.959Z,101567.11
2018-12-17T11:11:01.040Z,101552.41
2018-12-17T11:13:28.190Z,101545.16
2018-12-17T11:15:55.299Z,101548.87
2018-12-17T11:18:22.371Z,101550.25
2018-12-17T11:20:49.739Z,101550.19
2018-12-17T11:23:16.825Z,101552.03
2018-12-17T11:25:43.933Z,101553.61
2018-12-17T11:28:11.079Z,101553.03
2018-12-17T11:30:38.167Z,101560.95
2018-12-17T11:33:05.387Z,101548.41
2018-12-17T11:35:33.116Z,101557.83
2018-12-17T11:38:00.885Z,101545.86
2018-12-17T11:40:28.142Z,101541.34
2018-12-17T11:42:55.776Z,101546.13
2018-12-17T11:45:23.503Z,101550.91
2018-12-17T11:47:50.923Z,101550.41
2018-12-17T11:50:19.099Z,101551.94
2018-12-17T11:52:56.815Z,101539.77
2018-12-17T11:55:25.997Z,101555.30
2018-12-17T11:58:09.274Z,101552.42
2018-12-17T12:00:36.832Z,101556.06
2018-12-17T12:03:04.052Z,101551.97
2018-12-17T12:05:34.378Z,101554.76
2018-12-17T12:08:01.667Z,101560.42
2018-12-17T12:10:28.873Z,101559.61
2018-12-17T12:12:56.065Z,101565.97
2018-12-17T12:15:23.359Z,101568.79
2018-12-17T12:17:50.658Z,101564.58
2018-12-17T12:20:17.813Z,101563.13
2018-12-17T12:22:55.876Z,101567.70
2018-12-17T12:25:23.233Z,101566.08
2018-12-17T12:27:50.372Z,101570.44
2018-12-17T12:30:17.698Z,101584.81
2018-12-17T12:32:44.843Z,101586.98
2018-12-17T12:35:12.752Z,101580.34
2018-12-17T12:37:39.957Z,101579.23
2018-12-17T12:40:30.352Z,101578.00
2018-12-17T12:43:03.256Z,101584.96
2018-12-17T12:45:34.133Z,101585.41
2018-12-17T12:48:13.736Z,101583.28
2018-12-17T12:50:44.380Z,101595.20
2018-12-17T12:53:15.351Z,101598.00
2018-12-17T12:55:47.731Z,101594.25
2018-12-17T12:58:18.034Z,101599.14
2018-12-17T13:01:07.561Z,101604.23
2018-12-17T13:03:33.163Z,101592.84
2018-12-17T13:06:06.902Z,101596.70
2018-12-17T13:08:34.173Z,101584.78
2018-12-17T13:11:01.280Z,101588.90
2018-12-17T13:13:28.411Z,101591.78
2018-12-17T13:15:55.595Z,101597.86
2018-12-17T13:18:22.774Z,101607.20
2018-12-17T13:20:50.891Z,101606.52
2018-12-17T13:23:18.195Z,101602.73
2018-12-17T13:25:47.395Z,101600.70
2018-12-17T13:28:14.511Z,101613.07
2018-12-17T13:30:42.326Z,101603.48
2018-12-17T13:33:09.631Z,101611.02
2018-12-17T13:35:36.770Z,101610.09
2018-12-17T13:38:03.992Z,101614.92
2018-12-17T13:40:31.120Z,101620.03
2018-12-17T13:42:58.335Z,101616.67
2018-12-17T13:45:25.482Z,101621.08
2018-12-17T13:47:52.624Z,101629.66
2018-12-17T13:50:30.079Z,101624.77
2018-12-17T13:52:59.148Z,101633.81
2018-12-17T13:55:26.311Z,101635.66
2018-12-17T13:57:53.416Z,101631.34
2018-12-17T14:00:20.547Z,101636.95
2018-12-17T14:02:47.763Z,101639.68
2018-12-17T14:05:14.882Z,101639.86
2018-12-17T14:07:41.979Z,101642.99
2018-12-17T14:10:15.475Z,101644.59
2018-12-17T14:12:42.778Z,101652.88
2018-12-17T14:15:09.895Z,101653.01
2018-12-17T14:17:39.341Z,101659.34
2018-12-17T14:20:13.118Z,101662.40
2018-12-17T14:22:40.341Z,101666.76
2018-12-17T14:25:07.723Z,101669.69
2018-12-17T14:27:34.902Z,101660.75
2018-12-17T14:30:02.148Z,101667.55
2018-12-17T14:32:29.267Z,101667.17
2018-12-17T14:34:56.381Z,101662.16
2018-12-17T14:37:23.527Z,101670.17
2018-12-17T14:39:50.731Z,101673.56
2018-12-17T14:42:17.818Z,101670.72
2018-12-17T14:44:45.099Z,101677.96
2018-12-17T14:47:12.201Z,101677.22
2018-12-17T14:49:39.423Z,101679.39
2018-12-17T14:52:06.686Z,101679.49
2018-12-17T14:54:34.823Z,101694.80
2018-12-17T14:57:01.923Z,101690.31
2018-12-17T14:59:29.070Z,101694.13
2018-12-17T15:01:56.310Z,101693.20
2018-12-17T15:04:23.420Z,101695.20
2018-12-17T15:06:50.594Z,101694.89
2018-12-17T15:09:17.690Z,101701.58
2018-12-17T15:11:44.790Z,101698.52
2018-12-17T15:14:12.132Z,101702.42
2018-12-17T15:16:39.427Z,101702.23
2018-12-17T15:19:06.522Z,101701.54
2018-12-17T15:21:33.796Z,101710.11
2018-12-17T15:24:01.025Z,101707.17
2018-12-17T15:26:28.268Z,101713.08
2018-12-17T15:28:55.423Z,101713.62
2018-12-17T15:31:30.786Z,101721.19
2018-12-17T15:33:58.031Z,101728.42
2018-12-17T15:36:25.139Z,101734.41
2018-12-17T15:38:52.266Z,101727.27
2018-12-17T15:41:19.469Z,101730.98
2018-12-17T15:43:46.720Z,101728.65
2018-12-17T15:46:13.834Z,101730.73
2018-12-17T15:48:41.008Z,101736.34
2018-12-17T15:51:08.126Z,101737.69
2018-12-17T15:53:35.255Z,101744.23
2018-12-17T15:56:02.520Z,101753.28
2018-12-17T15:58:29.603Z,101758.33
2018-12-17T16:00:57.006Z,101748.19
2018-12-17T16:03:24.267Z,101755.83
2018-12-17T16:05:51.388Z,101753.70
2018-12-17T16:08:18.522Z,101762.66
2018-12-17T16:10:45.716Z,101760.38
2018-12-17T16:13:12.830Z,101757.45
2018-12-17T16:15:39.968Z,101757.77
2018-12-17T16:18:07.207Z,101761.42
2018-12-17T16:20:34.331Z,101761.39
2018-12-17T16:23:01.431Z,101766.04
2018-12-17T16:25:28.619Z,101762.47
2018-12-17T16:27:55.902Z,101765.20
2018-12-17T16:30:23.042Z,101761.56
2018-12-17T16:32:50.307Z,101767.88
2018-12-17T16:35:17.445Z,101774.42
2018-12-17T16:37:44.541Z,101774.75
2018-12-17T16:40:11.802Z,101770.66
2018-12-17T16:42:39.018Z,101767.33
2018-12-17T16:45:08.136Z,101772.98
2018-12-17T16:47:35.390Z,101780.25
2018-12-17T16:50:02.910Z,101787.27
2018-12-17T16:52:30.336Z,101794.44
2018-12-17T16:54:57.491Z,101794.34
2018-12-17T16:57:24.586Z,101794.76
2018-12-17T16:59:51.684Z,101792.09
2018-12-17T17:02:19.947Z,101791.42
2018-12-17T17:04:47.047Z,101791.17
2018-12-17T17:07:14.150Z,101794.59
2018-12-17T17:09:41.303Z,101792.78
2018-12-17T17:12:08.398Z,101800.41
2018-12-17T17:14:35.504Z,101796.36
2018-12-17T17:17:02.850Z,101799.06
2018-12-17T17:19:29.943Z,101801.65
2018-12-17T17:21:57.115Z,101797.45
2018-12-17T17:24:24.367Z,101803.37
2018-12-17T17:26:51.473Z,101812.14
2018-12-17T17:29:18.699Z,101812.05
2018-12-17T17:31:46.031Z,101813.75
2018-12-17T17:34:13.215Z,101812.46
2018-12-17T17:36:40.342Z,101822.69
2018-12-17T17:39:07.895Z,101822.20
2018-12-17T17:41:35.232Z,101830.98
2018-12-17T17:44:02.340Z,101831.25
2018-12-17T17:46:29.599Z,101827.77
2018-12-17T17:48:56.748Z,101828.48
2018-12-17T17:51:23.860Z,101831.66
2018-12-17T17:53:51.087Z,101832.91
2018-12-17T17:56:18.186Z,101830.89
2018-12-17T17:58:45.422Z,101837.48
2018-12-17T18:01:12.596Z,101840.75
2018-12-17T18:03:39.678Z,101838.52
2018-12-17T18:06:06.788Z,101844.48
2018-12-17T18:08:33.938Z,101843.20
2018-12-17T18:11:01.027Z,101847.50
2018-12-17T18:13:28.139Z,101851.66
2018-12-17T18:15:55.281Z,101849.94
2018-12-17T18:18:22.367Z,101846.47
2018-12-17T18:20:49.467Z,101861.89
2018-12-17T18:23:16.690Z,101857.98
2018-12-17T18:25:43.916Z,101861.52
2018-12-17T18:28:11.050Z,101868.75
2018-12-17T18:30:39.096Z,101869.56
2018-12-17T18:33:06.214Z,101865.41
2018-12-17T18:35:33.339Z,101872.27
2018-12-17T18:38:00.527Z,101865.30
2018-12-17T18:40:27.663Z,101870.87
2018-12-17T18:42:54.782Z,101871.07
2018-12-17T18:48:22.151Z,101874.09
2018-12-17T18:50:50.751Z,101878.50
2018-12-17T18:53:18.119Z,101875.33
2018-12-17T18:55:45.259Z,101879.64
2018-12-17T18:58:12.375Z,101876.22
2018-12-17T19:00:39.470Z,101881.98
2018-12-17T19:03:06.742Z,101880.06
2018-12-17T19:05:33.870Z,101884.52
2018-12-17T19:08:00.982Z,101881.41
2018-12-17T19:10:32.782Z,101884.27
2018-12-17T19:12:59.956Z,101882.39
2018-12-17T19:15:27.078Z,101891.89
2018-12-17T19:17:54.238Z,101896.37
2018-12-17T19:20:21.459Z,101893.09
2018-12-17T19:22:50.619Z,101889.20
2018-12-17T19:25:18.461Z,101892.38
2018-12-17T19:27:46.926Z,101892.67
2018-12-17T19:30:14.095Z,101901.52
2018-12-17T19:32:42.340Z,101900.56
2018-12-17T19:35:21.127Z,101902.23
2018-12-17T19:37:48.276Z,101899.28
2018-12-17T19:40:15.407Z,101902.50
2018-12-17T19:42:42.819Z,101902.50
2018-12-17T19:45:10.102Z,101905.36
2018-12-17T19:47:37.210Z,101910.70
2018-12-17T19:50:05.374Z,101912.21
2018-12-17T19:52:32.836Z,101913.30
2018-12-17T19:55:00.604Z,101911.37
2018-12-17T19:57:28.328Z,101902.50
2018-12-17T19:59:55.535Z,101902.61
2018-12-17T20:02:22.634Z,101910.08
2018-12-17T20:04:49.777Z,101912.98
2018-12-17T20:07:17.591Z,101906.97
2018-12-17T20:09:45.143Z,101910.81
2018-12-17T20:12:12.351Z,101909.25
2018-12-17T20:14:39.995Z,101913.87
2018-12-17T20:17:07.791Z,101915.33
2018-12-17T20:19:34.918Z,101918.34
2018-12-17T20:22:02.104Z,101920.98
2018-12-17T20:24:29.190Z,101932.31
2018-12-17T20:26:56.366Z,101931.02
2018-12-17T20:29:23.571Z,101933.20
2018-12-17T20:31:50.754Z,101927.13
2018-12-17T20:34:17.923Z,101933.05
2018-12-17T20:36:45.123Z,101928.00
2018-12-17T20:39:12.231Z,101921.50
2018-12-17T20:41:39.343Z,101926.97
2018-12-17T20:44:06.576Z,101928.80
2018-12-17T20:46:39.867Z,101931.73
2018-12-17T20:49:21.992Z,101934.23
2018-12-17T20:51:57.923Z,101933.50
2018-12-17T20:54:28.263Z,101937.55
2018-12-17T20:56:55.368Z,101934.66
2018-12-17T21:02:21.790Z,101936.72
2018-12-17T21:04:48.881Z,101934.34
2018-12-17T21:07:15.966Z,101933.55
2018-12-17T21:09:45.154Z,101939.08
2018-12-17T21:12:12.287Z,101943.06
2018-12-17T21:14:39.366Z,101935.69
2018-12-17T21:17:06.583Z,101936.93
2018-12-17T21:19:33.667Z,101931.62
2018-12-17T21:22:00.755Z,101925.86
2018-12-17T21:24:28.002Z,101919.05
2018-12-17T21:26:55.103Z,101914.70
2018-12-17T21:29:22.311Z,101919.11
2018-12-17T21:31:49.468Z,101922.43
2018-12-17T21:34:16.651Z,101921.70
2018-12-17T21:36:43.719Z,101918.48
2018-12-17T21:42:15.096Z,101930.48
2018-12-17T21:44:42.195Z,101934.13
2018-12-17T21:47:09.324Z,101938.43
2018-12-17T21:49:36.488Z,101936.16
2018-12-17T21:52:03.746Z,101947.59
2018-12-17T21:54:30.969Z,101950.19
2018-12-17T21:56:58.241Z,101947.84
2018-12-17T21:59:25.359Z,101948.59
2018-12-17T22:01:52.483Z,101952.86
2018-12-17T22:04:19.852Z,101961.04
2018-12-17T22:06:50.461Z,101960.50
2018-12-17T22:09:37.861Z,101962.76
2018-12-17T22:12:08.119Z,101969.30
2018-12-17T22:14:39.094Z,101965.30
2018-12-17T22:17:12.578Z,101963.13
2018-12-17T22:19:43.264Z,101969.20
2018-12-17T22:25:02.903Z,101979.76
2018-12-17T22:27:33.215Z,101977.80
2018-12-17T22:30:00.324Z,101980.58
2018-12-17T22:32:27.566Z,101971.23
2018-12-17T22:34:54.730Z,101975.53
2018-12-17T22:37:21.838Z,101966.45
2018-12-17T22:39:48.986Z,101973.83
2018-12-17T23:18:41.204Z,101961.61
2018-12-17T23:21:08.507Z,101960.16
2018-12-17T23:23:35.651Z,101959.55
2018-12-17T23:26:02.819Z,101965.67
2018-12-17T23:28:29.915Z,101953.73
2018-12-17T23:31:02.741Z,101954.25
2018-12-17T23:33:37.794Z,101955.59
2018-12-17T23:39:05.133Z,101948.67
2018-12-17T23:41:32.241Z,101953.17
2018-12-17T23:43:59.359Z,101957.59
2018-12-17T23:46:26.518Z,101951.27
2018-12-17T23:48:53.643Z,101958.98
2018-12-17T23:51:20.783Z,101956.83
2018-12-17T23:53:47.934Z,101958.74
2018-12-17T23:56:15.438Z,101961.15
2018-12-17T23:58:42.530Z,101960.84
